createdAt,value
2018-05-29T00:00:54.342Z,955.16
2018-05-29T00:01:54.338Z,955.12
2018-05-29T00:02:54.335Z,955.12
2018-05-29T00:03:54.336Z,955.13
2018-05-29T00:04:54.332Z,955.09
2018-05-29T00:05:54.326Z,955.12
2018-05-29T00:06:54.325Z,955.13
2018-05-29T00:07:54.322Z,955.12
2018-05-29T00:08:54.319Z,955.13
2018-05-29T00:09:54.315Z,955.09
2018-05-29T00:10:54.315Z,955.07
2018-05-29T00:11:54.310Z,955.08
2018-05-29T00:12:54.321Z,955.06
2018-05-29T00:13:54.324Z,955.06
2018-05-29T00:14:54.304Z,955.02
2018-05-29T00:15:54.301Z,955
2018-05-29T00:16:54.294Z,955.02
2018-05-29T00:17:54.292Z,954.99
2018-05-29T00:18:54.346Z,954.97
2018-05-29T00:19:54.286Z,954.95
2018-05-29T00:20:54.286Z,954.96
2018-05-29T00:21:54.281Z,954.97
2018-05-29T00:22:54.278Z,954.94
2018-05-29T00:23:54.278Z,954.96
2018-05-29T00:24:54.273Z,954.93
2018-05-29T00:25:54.270Z,954.9
2018-05-29T00:26:54.269Z,954.9
2018-05-29T00:27:54.265Z,954.83
2018-05-29T00:28:54.262Z,954.9
2018-05-29T00:29:54.258Z,954.89
2018-05-29T00:30:54.256Z,954.84
2018-05-29T00:31:54.251Z,954.89
2018-05-29T00:32:54.249Z,954.85
2018-05-29T00:33:54.247Z,954.82
2018-05-29T00:34:54.243Z,954.8
2018-05-29T00:35:54.242Z,954.82
2018-05-29T00:36:54.239Z,954.82
2018-05-29T00:37:54.240Z,954.82
2018-05-29T00:38:54.233Z,954.83
2018-05-29T00:39:54.231Z,954.76
2018-05-29T00:40:54.228Z,954.8
2018-05-29T00:41:54.225Z,954.79
2018-05-29T00:42:54.221Z,954.77
2018-05-29T00:43:54.219Z,954.77
2018-05-29T00:44:54.217Z,954.76
2018-05-29T00:45:54.213Z,954.71
2018-05-29T00:46:54.214Z,954.7
2018-05-29T00:47:54.208Z,954.74
2018-05-29T00:48:54.205Z,954.69
2018-05-29T00:49:54.204Z,954.69
2018-05-29T00:50:54.199Z,954.66
2018-05-29T00:51:54.200Z,954.69
2018-05-29T00:52:54.414Z,954.7
2018-05-29T00:53:54.189Z,954.71
2018-05-29T00:54:54.187Z,954.64
2018-05-29T00:55:54.185Z,954.65
2018-05-29T00:56:54.181Z,954.59
2018-05-29T00:57:54.180Z,954.6
2018-05-29T00:58:54.176Z,954.59
2018-05-29T00:59:54.173Z,954.59
2018-05-29T01:00:54.171Z,954.59
2018-05-29T01:01:54.167Z,954.63
2018-05-29T01:02:54.165Z,954.6
2018-05-29T01:03:54.159Z,954.61
2018-05-29T01:04:54.159Z,954.59
2018-05-29T01:05:54.155Z,954.58
2018-05-29T01:06:54.154Z,954.56
2018-05-29T01:07:54.149Z,954.53
2018-05-29T01:08:54.152Z,954.57
2018-05-29T01:09:54.148Z,954.54
2018-05-29T01:10:54.140Z,954.47
2018-05-29T01:11:54.137Z,954.52
2018-05-29T01:12:54.134Z,954.47
2018-05-29T01:13:54.134Z,954.44
2018-05-29T01:14:54.129Z,954.5
2018-05-29T01:15:54.126Z,954.46
2018-05-29T01:16:54.123Z,954.42
2018-05-29T01:17:54.121Z,954.46
2018-05-29T01:18:54.117Z,954.47
2018-05-29T01:19:54.117Z,954.46
2018-05-29T01:20:54.112Z,954.45
2018-05-29T01:21:54.109Z,954.48
2018-05-29T01:22:54.106Z,954.4
2018-05-29T01:23:54.103Z,954.44
2018-05-29T01:24:54.102Z,954.4
2018-05-29T01:25:54.097Z,954.38
2018-05-29T01:26:54.095Z,954.35
2018-05-29T01:27:54.092Z,954.35
2018-05-29T01:28:54.089Z,954.34
2018-05-29T01:29:54.085Z,954.3
2018-05-29T01:30:54.083Z,954.33
2018-05-29T01:31:54.080Z,954.32
2018-05-29T01:32:54.077Z,954.29
2018-05-29T01:33:54.075Z,954.32
2018-05-29T01:34:54.072Z,954.29
2018-05-29T01:35:54.069Z,954.29
2018-05-29T01:36:54.065Z,954.24
2018-05-29T01:37:54.063Z,954.25
2018-05-29T01:38:54.060Z,954.26
2018-05-29T01:39:54.057Z,954.24
2018-05-29T01:40:54.108Z,954.19
2018-05-29T01:41:54.051Z,954.22
2018-05-29T01:42:54.048Z,954.21
2018-05-29T01:43:54.045Z,954.25
2018-05-29T01:44:54.043Z,954.21
2018-05-29T01:45:54.040Z,954.2
2018-05-29T01:46:54.037Z,954.22
2018-05-29T01:47:54.033Z,954.22
2018-05-29T01:48:54.030Z,954.18
2018-05-29T01:49:54.027Z,954.15
2018-05-29T01:50:54.041Z,954.1
2018-05-29T01:51:54.021Z,954.14
2018-05-29T01:52:54.018Z,954.12
2018-05-29T01:53:54.018Z,954.1
2018-05-29T01:54:54.012Z,954.09
2018-05-29T01:55:54.009Z,954.01
2018-05-29T01:56:54.007Z,954.05
2018-05-29T01:57:54.013Z,954.01
2018-05-29T01:58:54.001Z,954.02
2018-05-29T01:59:54.006Z,954.01
2018-05-29T02:00:53.997Z,953.99
2018-05-29T02:01:53.993Z,954.02
2018-05-29T02:02:53.990Z,953.99
2018-05-29T02:03:53.987Z,954.03
2018-05-29T02:04:53.985Z,954
2018-05-29T02:05:53.979Z,954.04
2018-05-29T02:06:53.978Z,954.04
2018-05-29T02:07:53.975Z,954.01
2018-05-29T02:08:53.973Z,954.04
2018-05-29T02:09:53.969Z,954.01
2018-05-29T02:10:53.965Z,954.01
2018-05-29T02:11:53.962Z,954
2018-05-29T02:12:53.960Z,953.99
2018-05-29T02:13:53.957Z,954.02
2018-05-29T02:14:53.956Z,954.03
2018-05-29T02:15:53.951Z,954.01
2018-05-29T02:16:53.949Z,954.03
2018-05-29T02:17:53.944Z,954.03
2018-05-29T02:18:53.958Z,954
2018-05-29T02:19:53.940Z,954.01
2018-05-29T02:20:53.936Z,953.96
2018-05-29T02:21:53.934Z,953.98
2018-05-29T02:22:53.932Z,953.92
2018-05-29T02:23:53.926Z,953.91
2018-05-29T02:24:53.922Z,953.94
2018-05-29T02:25:53.921Z,953.9
2018-05-29T02:26:53.918Z,953.94
2018-05-29T02:27:53.913Z,953.94
2018-05-29T02:28:53.910Z,953.95
2018-05-29T02:29:53.907Z,953.94
2018-05-29T02:30:53.904Z,953.88
2018-05-29T02:31:53.900Z,953.92
2018-05-29T02:32:53.900Z,953.9
2018-05-29T02:33:53.894Z,953.91
2018-05-29T02:34:53.893Z,953.92
2018-05-29T02:35:53.907Z,953.89
2018-05-29T02:36:53.885Z,953.93
2018-05-29T02:37:53.882Z,953.89
2018-05-29T02:38:53.878Z,953.87
2018-05-29T02:39:53.876Z,953.87
2018-05-29T02:40:53.875Z,953.83
2018-05-29T02:41:53.884Z,953.86
2018-05-29T02:42:53.864Z,953.9
2018-05-29T02:43:53.862Z,953.88
2018-05-29T02:44:53.859Z,953.9
2018-05-29T02:45:53.856Z,953.87
2018-05-29T02:46:53.854Z,953.87
2018-05-29T02:47:53.849Z,953.9
2018-05-29T02:48:53.847Z,953.87
2018-05-29T02:49:53.843Z,953.87
2018-05-29T02:50:53.840Z,953.85
2018-05-29T02:51:53.837Z,953.88
2018-05-29T02:52:53.833Z,953.91
2018-05-29T02:53:53.848Z,953.91
2018-05-29T02:54:53.827Z,953.92
2018-05-29T02:55:53.860Z,953.9
2018-05-29T02:56:53.819Z,953.88
2018-05-29T02:57:53.818Z,953.89
2018-05-29T02:58:53.814Z,953.9
2018-05-29T02:59:53.829Z,953.89
2018-05-29T03:00:53.807Z,953.94
2018-05-29T03:01:53.804Z,953.92
2018-05-29T03:02:53.802Z,953.95
2018-05-29T03:03:53.813Z,953.95
2018-05-29T03:04:53.794Z,953.95
2018-05-29T03:05:53.791Z,953.94
2018-05-29T03:06:53.800Z,953.91
2018-05-29T03:07:53.785Z,953.91
2018-05-29T03:08:53.781Z,953.91
2018-05-29T03:09:53.784Z,953.88
2018-05-29T03:10:53.775Z,953.9
2018-05-29T03:11:53.771Z,953.89
2018-05-29T03:12:53.773Z,953.87
2018-05-29T03:13:53.765Z,953.89
2018-05-29T03:14:53.761Z,953.87
2018-05-29T03:15:53.757Z,953.92
2018-05-29T03:16:53.755Z,953.9
2018-05-29T03:17:53.752Z,953.91
2018-05-29T03:18:53.748Z,953.92
2018-05-29T03:19:53.747Z,953.94
2018-05-29T03:20:53.787Z,953.91
2018-05-29T03:21:53.739Z,953.93
2018-05-29T03:22:53.736Z,953.94
2018-05-29T03:23:53.732Z,953.93
2018-05-29T03:24:53.730Z,953.97
2018-05-29T03:25:53.725Z,953.93
2018-05-29T03:26:53.722Z,953.94
2018-05-29T03:27:53.718Z,953.95
2018-05-29T03:28:53.717Z,953.96
2018-05-29T03:29:53.713Z,953.95
2018-05-29T03:30:53.709Z,953.93
2018-05-29T03:31:53.707Z,953.93
2018-05-29T03:32:53.776Z,954
2018-05-29T03:33:53.703Z,953.97
2018-05-29T03:34:53.696Z,954
2018-05-29T03:35:53.692Z,953.97
2018-05-29T03:36:53.707Z,953.98
2018-05-29T03:37:53.696Z,953.99
2018-05-29T03:38:53.683Z,953.99
2018-05-29T03:39:53.680Z,954.02
2018-05-29T03:40:53.676Z,954
2018-05-29T03:41:53.673Z,954.06
2018-05-29T03:42:53.670Z,954.05
2018-05-29T03:43:53.670Z,954.09
2018-05-29T03:44:53.663Z,954.09
2018-05-29T03:45:53.662Z,954.11
2018-05-29T03:46:53.656Z,954.12
2018-05-29T03:47:53.654Z,954.16
2018-05-29T03:48:53.872Z,954.17
2018-05-29T03:49:53.648Z,954.14
2018-05-29T03:50:53.644Z,954.13
2018-05-29T03:51:53.642Z,954.18
2018-05-29T03:52:53.638Z,954.19
2018-05-29T03:53:53.637Z,954.18
2018-05-29T03:54:53.633Z,954.16
2018-05-29T03:55:53.629Z,954.2
2018-05-29T03:56:53.627Z,954.19
2018-05-29T03:57:53.624Z,954.19
2018-05-29T03:58:53.620Z,954.22
2018-05-29T03:59:53.617Z,954.22
2018-05-29T04:00:53.613Z,954.24
2018-05-29T04:01:53.610Z,954.25
2018-05-29T04:02:53.606Z,954.25
2018-05-29T04:03:53.603Z,954.27
2018-05-29T04:04:53.602Z,954.22
2018-05-29T04:05:53.598Z,954.24
2018-05-29T04:06:53.595Z,954.18
2018-05-29T04:07:53.592Z,954.19
2018-05-29T04:08:53.589Z,954.19
2018-05-29T04:09:53.616Z,954.19
2018-05-29T04:10:53.584Z,954.19
2018-05-29T04:11:53.582Z,954.16
2018-05-29T04:12:53.579Z,954.16
2018-05-29T04:13:53.575Z,954.19
2018-05-29T04:14:53.573Z,954.16
2018-05-29T04:15:53.583Z,954.18
2018-05-29T04:16:53.567Z,954.18
2018-05-29T04:17:53.563Z,954.14
2018-05-29T04:18:53.562Z,954.16
2018-05-29T04:19:53.558Z,954.12
2018-05-29T04:20:53.554Z,954.11
2018-05-29T04:21:53.552Z,954.15
2018-05-29T04:22:53.555Z,954.16
2018-05-29T04:23:53.547Z,954.13
2018-05-29T04:24:53.556Z,954.18
2018-05-29T04:25:53.542Z,954.18
2018-05-29T04:26:53.543Z,954.17
2018-05-29T04:27:53.536Z,954.17
2018-05-29T04:28:53.532Z,954.18
2018-05-29T04:29:53.533Z,954.21
2018-05-29T04:30:53.531Z,954.16
2018-05-29T04:31:53.527Z,954.2
2018-05-29T04:32:53.522Z,954.15
2018-05-29T04:33:53.522Z,954.2
2018-05-29T04:34:53.518Z,954.18
2018-05-29T04:35:53.514Z,954.2
2018-05-29T04:36:53.514Z,954.16
2018-05-29T04:37:53.509Z,954.18
2018-05-29T04:38:53.507Z,954.15
2018-05-29T04:39:53.505Z,954.12
2018-05-29T04:40:53.503Z,954.17
2018-05-29T04:41:53.499Z,954.2
2018-05-29T04:42:53.496Z,954.19
2018-05-29T04:43:53.495Z,954.18
2018-05-29T04:44:53.492Z,954.18
2018-05-29T04:45:53.490Z,954.15
2018-05-29T04:46:53.487Z,954.13
2018-05-29T04:47:53.485Z,954.11
2018-05-29T04:48:53.483Z,954.08
2018-05-29T04:49:53.480Z,954.08
2018-05-29T04:50:53.478Z,954.1
2018-05-29T04:51:53.477Z,954.06
2018-05-29T04:52:53.493Z,954.04
2018-05-29T04:53:53.690Z,954.05
2018-05-29T04:54:53.469Z,954.04
2018-05-29T04:55:53.468Z,954.03
2018-05-29T04:56:53.465Z,954.02
2018-05-29T04:57:53.463Z,954.09
2018-05-29T04:58:53.460Z,954.04
2018-05-29T04:59:53.458Z,954.03
2018-05-29T05:00:53.457Z,954.05
2018-05-29T05:01:53.454Z,954.06
2018-05-29T05:02:53.450Z,954
2018-05-29T05:03:53.450Z,953.99
2018-05-29T05:04:53.447Z,954.03
2018-05-29T05:05:53.446Z,954
2018-05-29T05:06:53.462Z,954.02
2018-05-29T05:07:53.444Z,954.03
2018-05-29T05:08:53.448Z,954.06
2018-05-29T05:09:53.438Z,954.03
2018-05-29T05:10:53.437Z,953.96
2018-05-29T05:11:53.434Z,954.02
2018-05-29T05:12:53.433Z,954.05
2018-05-29T05:13:53.446Z,953.99
2018-05-29T05:14:53.432Z,954
2018-05-29T05:15:53.426Z,953.98
2018-05-29T05:16:53.425Z,954
2018-05-29T05:17:53.424Z,953.99
2018-05-29T05:18:53.422Z,954.01
2018-05-29T05:19:53.421Z,954.02
2018-05-29T05:20:53.419Z,953.97
2018-05-29T05:21:53.419Z,954
2018-05-29T05:22:53.418Z,953.97
2018-05-29T05:23:53.417Z,953.96
2018-05-29T05:24:53.415Z,953.94
2018-05-29T05:25:53.414Z,953.97
2018-05-29T05:26:53.411Z,953.98
2018-05-29T05:27:53.409Z,953.99
2018-05-29T05:28:53.408Z,953.98
2018-05-29T05:29:53.409Z,953.96
2018-05-29T05:30:53.407Z,954
2018-05-29T05:31:53.406Z,954
2018-05-29T05:32:53.405Z,953.99
2018-05-29T05:33:53.402Z,954.02
2018-05-29T05:34:53.400Z,953.99
2018-05-29T05:35:53.400Z,953.97
2018-05-29T05:36:53.401Z,953.93
2018-05-29T05:37:53.399Z,953.93
2018-05-29T05:38:53.397Z,953.93
2018-05-29T05:39:53.396Z,953.93
2018-05-29T05:40:53.399Z,953.95
2018-05-29T05:41:53.393Z,953.94
2018-05-29T05:42:53.392Z,953.94
2018-05-29T05:43:53.392Z,953.95
2018-05-29T05:44:53.390Z,953.95
2018-05-29T05:45:53.388Z,953.94
2018-05-29T05:46:53.391Z,953.98
2018-05-29T05:47:53.387Z,953.93
2018-05-29T05:48:53.386Z,953.95
2018-05-29T05:49:53.386Z,953.95
2018-05-29T05:50:53.384Z,953.94
2018-05-29T05:51:53.385Z,953.96
2018-05-29T05:52:53.384Z,953.96
2018-05-29T05:53:53.382Z,953.93
2018-05-29T05:54:53.386Z,953.96
2018-05-29T05:55:53.378Z,953.95
2018-05-29T05:56:53.380Z,953.95
2018-05-29T05:57:53.379Z,953.94
2018-05-29T05:58:53.379Z,953.91
2018-05-29T05:59:53.377Z,953.86
2018-05-29T06:00:53.377Z,953.9
2018-05-29T06:01:53.377Z,953.85
2018-05-29T06:02:53.415Z,953.9
2018-05-29T06:03:53.394Z,953.86
2018-05-29T06:04:53.374Z,953.86
2018-05-29T06:05:53.375Z,953.87
2018-05-29T06:06:53.373Z,953.83
2018-05-29T06:07:53.373Z,953.9
2018-05-29T06:08:53.373Z,953.87
2018-05-29T06:09:53.373Z,953.85
2018-05-29T06:10:53.375Z,953.84
2018-05-29T06:11:53.372Z,953.87
2018-05-29T06:12:53.372Z,953.92
2018-05-29T06:13:53.372Z,953.89
2018-05-29T06:14:53.371Z,953.87
2018-05-29T06:15:53.370Z,953.87
2018-05-29T06:16:53.370Z,953.89
2018-05-29T06:17:53.371Z,953.9
2018-05-29T06:18:53.374Z,953.87
2018-05-29T06:19:53.370Z,953.83
2018-05-29T06:20:53.371Z,953.83
2018-05-29T06:21:53.369Z,953.86
2018-05-29T06:22:53.375Z,953.88
2018-05-29T06:23:53.370Z,953.84
2018-05-29T06:24:53.370Z,953.87
2018-05-29T06:25:53.371Z,953.87
2018-05-29T06:26:53.370Z,953.84
2018-05-29T06:27:53.371Z,953.86
2018-05-29T06:28:53.370Z,953.89
2018-05-29T06:29:53.370Z,953.83
2018-05-29T06:30:53.373Z,953.87
2018-05-29T06:31:53.371Z,953.86
2018-05-29T06:32:53.371Z,953.87
2018-05-29T06:33:53.372Z,953.9
2018-05-29T06:34:53.373Z,953.93
2018-05-29T06:35:53.375Z,953.93
2018-05-29T06:36:53.373Z,953.92
2018-05-29T06:37:53.374Z,953.96
2018-05-29T06:38:53.374Z,954
2018-05-29T06:39:53.375Z,953.96
2018-05-29T06:40:53.376Z,953.98
2018-05-29T06:41:53.377Z,953.94
2018-05-29T06:42:53.377Z,953.97
2018-05-29T06:43:53.379Z,953.94
2018-05-29T06:44:53.466Z,953.93
2018-05-29T06:45:53.383Z,953.94
2018-05-29T06:46:53.384Z,953.93
2018-05-29T06:47:53.386Z,953.92
2018-05-29T06:48:53.388Z,953.95
2018-05-29T06:49:53.391Z,953.92
2018-05-29T06:50:53.393Z,953.91
2018-05-29T06:51:53.397Z,953.92
2018-05-29T06:52:53.401Z,953.93
2018-05-29T06:53:53.404Z,953.93
2018-05-29T06:54:53.409Z,953.91
2018-05-29T06:55:53.420Z,953.89
2018-05-29T06:56:53.416Z,953.87
2018-05-29T06:57:53.424Z,953.95
2018-05-29T06:58:53.427Z,953.99
2018-05-29T06:59:53.435Z,953.91
2018-05-29T07:00:53.438Z,953.88
2018-05-29T07:01:53.445Z,953.89
2018-05-29T07:02:53.449Z,953.92
2018-05-29T07:03:53.500Z,953.93
2018-05-29T07:04:53.462Z,953.93
2018-05-29T07:05:53.471Z,953.88
2018-05-29T07:06:53.475Z,953.88
2018-05-29T07:07:53.489Z,953.88
2018-05-29T07:08:53.488Z,953.86
2018-05-29T07:09:53.496Z,953.83
2018-05-29T07:10:53.504Z,953.83
2018-05-29T07:11:53.513Z,953.79
2018-05-29T07:12:53.520Z,953.84
2018-05-29T07:13:53.531Z,953.86
2018-05-29T07:14:53.537Z,953.86
2018-05-29T07:15:53.547Z,953.81
2018-05-29T07:16:53.552Z,953.84
2018-05-29T07:17:53.569Z,953.83
2018-05-29T07:18:53.572Z,953.84
2018-05-29T07:19:53.596Z,953.86
2018-05-29T07:20:53.589Z,953.88
2018-05-29T07:21:53.597Z,953.85
2018-05-29T07:22:53.607Z,953.83
2018-05-29T07:23:53.615Z,953.87
2018-05-29T07:24:53.624Z,953.8
2018-05-29T07:25:53.634Z,953.78
2018-05-29T07:26:53.645Z,953.78
2018-05-29T07:27:53.653Z,953.8
2018-05-29T07:28:53.666Z,953.78
2018-05-29T07:29:53.675Z,953.78
2018-05-29T07:30:53.700Z,953.79
2018-05-29T07:31:53.692Z,953.83
2018-05-29T07:32:53.704Z,953.87
2018-05-29T07:33:53.714Z,953.86
2018-05-29T07:34:53.724Z,953.83
2018-05-29T07:35:53.733Z,953.84
2018-05-29T07:36:53.745Z,953.87
2018-05-29T07:37:53.757Z,953.81
2018-05-29T07:38:53.805Z,953.75
2018-05-29T07:39:53.776Z,953.76
2018-05-29T07:40:53.789Z,953.67
2018-05-29T07:41:53.817Z,953.7
2018-05-29T07:42:53.809Z,953.69
2018-05-29T07:43:53.820Z,953.65
2018-05-29T07:44:53.835Z,953.67
2018-05-29T07:45:53.842Z,953.68
2018-05-29T07:46:53.853Z,953.67
2018-05-29T07:47:53.864Z,953.66
2018-05-29T07:48:53.875Z,953.61
2018-05-29T07:49:53.887Z,953.59
2018-05-29T07:50:53.901Z,953.62
2018-05-29T07:51:53.922Z,953.62
2018-05-29T07:52:53.922Z,953.6
2018-05-29T07:53:53.931Z,953.58
2018-05-29T07:54:53.942Z,953.64
2018-05-29T07:55:53.954Z,953.64
2018-05-29T07:56:53.963Z,953.62
2018-05-29T07:57:53.975Z,953.63
2018-05-29T07:58:54.093Z,953.63
2018-05-29T07:59:53.995Z,953.63
2018-05-29T08:00:54.005Z,953.6
2018-05-29T08:01:54.016Z,953.66
2018-05-29T08:02:54.027Z,953.63
2018-05-29T08:03:54.037Z,953.64
2018-05-29T08:04:54.047Z,953.63
2018-05-29T08:05:54.057Z,953.63
2018-05-29T08:06:54.067Z,953.64
2018-05-29T08:07:54.076Z,953.69
2018-05-29T08:08:54.085Z,953.64
2018-05-29T08:09:54.095Z,953.69
2018-05-29T08:10:54.105Z,953.66
2018-05-29T08:11:54.114Z,953.66
2018-05-29T08:12:54.124Z,953.66
2018-05-29T08:13:54.132Z,953.67
2018-05-29T08:14:54.141Z,953.64
2018-05-29T08:15:54.150Z,953.62
2018-05-29T08:16:54.158Z,953.66
2018-05-29T08:17:54.167Z,953.63
2018-05-29T08:18:54.176Z,953.64
2018-05-29T08:19:54.182Z,953.64
2018-05-29T08:20:54.190Z,953.61
2018-05-29T08:21:54.200Z,953.61
2018-05-29T08:22:54.209Z,953.61
2018-05-29T08:23:54.220Z,953.62
2018-05-29T08:24:54.222Z,953.59
2018-05-29T08:25:54.230Z,953.6
2018-05-29T08:26:54.239Z,953.63
2018-05-29T08:27:54.245Z,953.62
2018-05-29T08:28:54.251Z,953.64
2018-05-29T08:29:54.257Z,953.65
2018-05-29T08:30:54.267Z,953.63
2018-05-29T08:31:54.288Z,953.67
2018-05-29T08:32:54.280Z,953.66
2018-05-29T08:33:54.288Z,953.67
2018-05-29T08:34:54.295Z,953.67
2018-05-29T08:35:54.302Z,953.63
2018-05-29T08:36:54.308Z,953.67
2018-05-29T08:37:54.314Z,953.63
2018-05-29T08:38:54.322Z,953.64
2018-05-29T08:39:54.328Z,953.6
2018-05-29T08:40:54.333Z,953.63
2018-05-29T08:41:54.341Z,953.67
2018-05-29T08:42:54.348Z,953.58
2018-05-29T08:43:54.354Z,953.63
2018-05-29T08:44:54.384Z,953.59
2018-05-29T08:45:54.366Z,953.59
2018-05-29T08:46:54.374Z,953.65
2018-05-29T08:47:54.378Z,953.62
2018-05-29T08:48:54.384Z,953.58
2018-05-29T08:49:54.390Z,953.57
2018-05-29T08:50:54.396Z,953.6
2018-05-29T08:51:54.403Z,953.61
2018-05-29T08:52:54.408Z,953.6
2018-05-29T08:53:54.415Z,953.6
2018-05-29T08:54:54.419Z,953.52
2018-05-29T08:55:54.433Z,953.54
2018-05-29T08:56:54.431Z,953.52
2018-05-29T08:57:54.437Z,953.54
2018-05-29T08:58:54.443Z,953.56
2018-05-29T08:59:54.451Z,953.54
2018-05-29T09:00:54.455Z,953.49
2018-05-29T09:01:54.485Z,953.48
2018-05-29T09:02:54.466Z,953.52
2018-05-29T09:03:54.484Z,953.54
2018-05-29T09:04:54.478Z,953.47
2018-05-29T09:05:54.483Z,953.52
2018-05-29T09:06:54.490Z,953.52
2018-05-29T09:07:54.503Z,953.55
2018-05-29T09:08:54.501Z,953.52
2018-05-29T09:09:54.509Z,953.53
2018-05-29T09:10:54.512Z,953.55
2018-05-29T09:11:54.525Z,953.52
2018-05-29T09:12:54.523Z,953.52
2018-05-29T09:13:54.528Z,953.63
2018-05-29T09:14:54.534Z,953.48
2018-05-29T09:15:54.545Z,953.56
2018-05-29T09:16:54.544Z,953.46
2018-05-29T09:17:54.549Z,953.5
2018-05-29T09:18:54.559Z,953.47
2018-05-29T09:19:54.620Z,953.47
2018-05-29T09:20:54.565Z,953.55
2018-05-29T09:21:54.572Z,953.54
2018-05-29T09:22:54.577Z,953.58
2018-05-29T09:23:54.582Z,953.57
2018-05-29T09:24:54.589Z,953.54
2018-05-29T09:25:54.594Z,953.57
2018-05-29T09:26:54.598Z,953.58
2018-05-29T09:27:54.603Z,953.56
2018-05-29T09:28:54.614Z,953.54
2018-05-29T09:29:54.660Z,953.53
2018-05-29T09:30:54.620Z,953.55
2018-05-29T09:31:54.626Z,953.54
2018-05-29T09:32:54.630Z,953.5
2018-05-29T09:33:54.637Z,953.5
2018-05-29T09:34:54.641Z,953.53
2018-05-29T09:35:54.645Z,953.52
2018-05-29T09:36:54.650Z,953.54
2018-05-29T09:37:54.656Z,953.5
2018-05-29T09:38:54.661Z,953.48
2018-05-29T09:39:54.667Z,953.45
2018-05-29T09:40:54.672Z,953.45
2018-05-29T09:41:54.677Z,953.43
2018-05-29T09:42:54.683Z,953.49
2018-05-29T09:43:54.688Z,953.48
2018-05-29T09:44:54.692Z,953.47
2018-05-29T09:45:54.798Z,953.41
2018-05-29T09:46:54.705Z,953.46
2018-05-29T09:47:54.708Z,953.45
2018-05-29T09:48:54.714Z,953.43
2018-05-29T09:49:54.719Z,953.47
2018-05-29T09:50:54.724Z,953.43
2018-05-29T09:51:54.729Z,953.46
2018-05-29T09:52:54.763Z,953.45
2018-05-29T09:53:54.739Z,953.45
2018-05-29T09:54:54.744Z,953.45
2018-05-29T09:55:54.750Z,953.4
2018-05-29T09:56:54.756Z,953.44
2018-05-29T09:57:54.760Z,953.46
2018-05-29T09:58:54.766Z,953.46
2018-05-29T09:59:54.772Z,953.48
2018-05-29T10:00:54.776Z,953.44
2018-05-29T10:01:54.781Z,953.48
2018-05-29T10:02:54.787Z,953.46
2018-05-29T10:03:54.791Z,953.48
2018-05-29T10:04:54.800Z,953.47
2018-05-29T10:05:54.802Z,953.45
2018-05-29T10:06:54.836Z,953.47
2018-05-29T10:07:54.812Z,953.43
2018-05-29T10:08:54.817Z,953.46
2018-05-29T10:09:54.830Z,953.44
2018-05-29T10:10:54.829Z,953.38
2018-05-29T10:11:54.833Z,953.41
2018-05-29T10:12:54.838Z,953.37
2018-05-29T10:13:54.861Z,953.37
2018-05-29T10:14:54.851Z,953.37
2018-05-29T10:15:54.896Z,953.41
2018-05-29T10:16:54.862Z,953.29
2018-05-29T10:17:54.863Z,953.3
2018-05-29T10:18:54.869Z,953.29
2018-05-29T10:19:54.874Z,953.3
2018-05-29T10:20:54.880Z,953.29
2018-05-29T10:21:54.885Z,953.27
2018-05-29T10:22:54.889Z,953.24
2018-05-29T10:23:54.895Z,953.28
2018-05-29T10:24:54.905Z,953.24
2018-05-29T10:25:54.905Z,953.25
2018-05-29T10:26:54.912Z,953.26
2018-05-29T10:27:54.916Z,953.27
2018-05-29T10:28:54.922Z,953.2
2018-05-29T10:29:54.925Z,953.26
2018-05-29T10:30:54.979Z,953.26
2018-05-29T10:31:54.936Z,953.25
2018-05-29T10:32:54.942Z,953.29
2018-05-29T10:33:54.945Z,953.21
2018-05-29T10:34:54.950Z,953.24
2018-05-29T10:35:54.957Z,953.25
2018-05-29T10:36:54.963Z,953.18
2018-05-29T10:37:54.966Z,953.21
2018-05-29T10:38:54.973Z,953.25
2018-05-29T10:39:54.994Z,953.25
2018-05-29T10:40:54.984Z,953.25
2018-05-29T10:41:54.990Z,953.24
2018-05-29T10:42:54.993Z,953.21
2018-05-29T10:43:55.000Z,953.24
2018-05-29T10:44:55.006Z,953.22
2018-05-29T10:45:55.009Z,953.21
2018-05-29T10:46:55.015Z,953.21
2018-05-29T10:47:55.021Z,953.23
2018-05-29T10:48:55.025Z,953.19
2018-05-29T10:49:55.030Z,953.2
2018-05-29T10:50:55.036Z,953.2
2018-05-29T10:51:55.041Z,953.2
2018-05-29T10:52:55.046Z,953.23
2018-05-29T10:53:55.052Z,953.24
2018-05-29T10:54:55.059Z,953.21
2018-05-29T10:55:55.065Z,953.18
2018-05-29T10:56:55.067Z,953.2
2018-05-29T10:57:55.075Z,953.19
2018-05-29T10:58:55.080Z,953.2
2018-05-29T10:59:55.083Z,953.17
2018-05-29T11:00:55.089Z,953.23
2018-05-29T11:01:55.095Z,953.24
2018-05-29T11:02:55.100Z,953.22
2018-05-29T11:03:55.105Z,953.21
2018-05-29T11:04:55.111Z,953.2
2018-05-29T11:05:55.118Z,953.22
2018-05-29T11:06:55.155Z,953.17
2018-05-29T11:07:55.129Z,953.19
2018-05-29T11:08:55.134Z,953.11
2018-05-29T11:09:55.139Z,953.17
2018-05-29T11:10:55.144Z,953.14
2018-05-29T11:11:55.151Z,953.12
2018-05-29T11:12:55.155Z,953.08
2018-05-29T11:13:55.160Z,953.12
2018-05-29T11:14:55.166Z,953.06
2018-05-29T11:15:55.173Z,953.1
2018-05-29T11:16:55.380Z,953.13
2018-05-29T11:17:55.185Z,953.09
2018-05-29T11:18:55.188Z,953.11
2018-05-29T11:19:55.195Z,953.12
2018-05-29T11:20:55.202Z,953.07
2018-05-29T11:21:55.204Z,953.06
2018-05-29T11:22:55.211Z,953.09
2018-05-29T11:23:55.216Z,953.12
2018-05-29T11:24:55.221Z,953.07
2018-05-29T11:25:55.228Z,953.1
2018-05-29T11:26:55.235Z,953
2018-05-29T11:27:55.241Z,953.01
2018-05-29T11:28:55.263Z,953
2018-05-29T11:29:55.250Z,953
2018-05-29T11:30:55.256Z,952.98
2018-05-29T11:31:55.262Z,952.97
2018-05-29T11:32:55.268Z,952.97
2018-05-29T11:33:55.275Z,952.98
2018-05-29T11:34:55.283Z,952.97
2018-05-29T11:35:55.290Z,952.95
2018-05-29T11:36:55.290Z,952.95
2018-05-29T11:37:55.298Z,952.96
2018-05-29T11:38:55.303Z,952.93
2018-05-29T11:39:55.308Z,952.95
2018-05-29T11:40:55.314Z,952.88
2018-05-29T11:41:55.320Z,952.92
2018-05-29T11:42:55.325Z,952.88
2018-05-29T11:43:55.332Z,952.86
2018-05-29T11:44:55.385Z,952.86
2018-05-29T11:45:55.344Z,952.84
2018-05-29T11:46:55.347Z,952.78
2018-05-29T11:47:55.354Z,952.81
2018-05-29T11:48:55.367Z,952.79
2018-05-29T11:49:55.366Z,952.74
2018-05-29T11:50:55.372Z,952.74
2018-05-29T11:51:55.600Z,952.76
2018-05-29T11:52:55.392Z,952.74
2018-05-29T11:53:55.392Z,952.75
2018-05-29T11:54:55.427Z,952.75
2018-05-29T11:55:55.403Z,952.75
2018-05-29T11:56:55.408Z,952.74
2018-05-29T11:57:55.413Z,952.73
2018-05-29T11:58:55.420Z,952.67
2018-05-29T11:59:55.425Z,952.73
2018-05-29T12:00:55.433Z,952.71
2018-05-29T12:01:55.436Z,952.71
2018-05-29T12:02:55.443Z,952.75
2018-05-29T12:03:55.449Z,952.73
2018-05-29T12:04:55.455Z,952.74
2018-05-29T12:05:55.460Z,952.75
2018-05-29T12:06:55.467Z,952.68
2018-05-29T12:07:55.473Z,952.69
2018-05-29T12:08:55.478Z,952.68
2018-05-29T12:09:55.484Z,952.64
2018-05-29T12:10:55.491Z,952.66
2018-05-29T12:11:55.497Z,952.65
2018-05-29T12:12:55.502Z,952.67
2018-05-29T12:13:55.508Z,952.71
2018-05-29T12:14:55.515Z,952.74
2018-05-29T12:15:55.536Z,952.72
2018-05-29T12:16:55.553Z,952.69
2018-05-29T12:17:55.534Z,952.75
2018-05-29T12:18:55.540Z,952.75
2018-05-29T12:19:55.546Z,952.73
2018-05-29T12:20:55.551Z,952.7
2018-05-29T12:21:55.558Z,952.74
2018-05-29T12:22:55.564Z,952.7
2018-05-29T12:23:55.568Z,952.7
2018-05-29T12:24:55.577Z,952.76
2018-05-29T12:25:55.581Z,952.74
2018-05-29T12:26:55.587Z,952.66
2018-05-29T12:27:55.595Z,952.68
2018-05-29T12:28:55.600Z,952.69
2018-05-29T12:29:55.606Z,952.67
2018-05-29T12:30:55.610Z,952.69
2018-05-29T12:31:55.633Z,952.67
2018-05-29T12:32:55.623Z,952.61